Tuesday, April 24, 2018, 9:00 PM EDT
Back to Local

KGFL, Floyd Bennett Memorial Airport

Location: Queensbury, NY, United States Lat: 43.333
Local Time: 9:00 PM EDT ( 1:00 GMT) Lon: -73.617
Time Zone: US/Eastern Elev: 328 ft

Show me the last for .
Show Decoded

2018-04-24 19:53 METAR KGFL 242353Z AUTO 21006KT 10SM CLR 17/M01 A3013 RMK AO2 SLP206 T01671011
                 10211 20167 56008 =
2018-04-24 18:53 METAR KGFL 242253Z AUTO 20007KT 10SM CLR 18/M02 A3014 RMK AO2 SLP208 T01831022 =
2018-04-24 17:53 METAR KGFL 242153Z AUTO 19010G18KT 10SM CLR 19/M05 A3015 RMK AO2 SLP212
                 T01891050 =
2018-04-24 16:53 METAR KGFL 242053Z AUTO 17016G20KT 10SM CLR 21/M05 A3016 RMK AO2 SLP216
                 T02061050 56024 =
2018-04-24 15:53 METAR KGFL 241953Z AUTO 19008G16KT 160V250 10SM CLR 21/M04 A3018 RMK AO2 SLP223
                 T02061044 =
2018-04-24 14:53 METAR KGFL 241853Z AUTO 20010G18KT 10SM CLR 21/M04 A3021 RMK AO2 SLP231
                 T02061039 =
2018-04-24 13:53 METAR KGFL 241753Z AUTO 18013G19KT 10SM CLR 20/M03 A3023 RMK AO2 SLP239
                 T02001028 10200 20089 56034 =
2018-04-24 12:53 METAR KGFL 241653Z AUTO 20011G17KT 10SM CLR 19/M02 A3025 RMK AO2 SLP247
                 T01891022 =
2018-04-24 11:53 METAR KGFL 241553Z AUTO 14011G15KT 10SM CLR 17/00 A3029 RMK AO2 SLP261 T01720000
                 =
2018-04-24 10:53 METAR KGFL 241453Z AUTO 18010KT 10SM CLR 15/00 A3033 RMK AO2 SLP275 T01500000
                 58014 =
2018-04-24 09:53 METAR KGFL 241353Z AUTO 15004KT 10SM CLR 12/00 A3035 RMK AO2 SLP281 T01220000 =
2018-04-24 08:53 METAR KGFL 241253Z AUTO 20008KT 10SM CLR 11/M01 A3036 RMK AO2 SLP287 T01061006 =
2018-04-24 07:53 METAR KGFL 241153Z AUTO 20005KT 10SM CLR 09/M01 A3037 RMK AO2 SLP288 T00891006
                 10089 21011 51011 =
2018-04-24 06:53 METAR KGFL 241053Z AUTO 00000KT 10SM CLR 01/M01 A3036 RMK AO2 SLP286 T00061011 =
2018-04-24 05:53 METAR KGFL 240953Z AUTO 00000KT 10SM CLR M01/M03 A3035 RMK AO2 SLP280 T10061028
                 =
2018-04-24 04:53 METAR KGFL 240853Z AUTO 00000KT 10SM CLR 01/M02 A3034 RMK AO2 SLP277 T00061022
                 58003 =
2018-04-24 03:53 METAR KGFL 240753Z AUTO 00000KT 10SM CLR 01/M02 A3034 RMK AO2 SLP279 T00111022 =
2018-04-24 02:53 METAR KGFL 240653Z AUTO 00000KT 10SM CLR 06/M02 A3034 RMK AO2 SLP277 T00611022 =
2018-04-24 01:53 METAR KGFL 240553Z AUTO 00000KT 10SM CLR 04/M02 A3035 RMK AO2 SLP280 T00391022
                 10117 20017 50004 =
2018-04-24 00:53 METAR KGFL 240453Z AUTO 20007KT 10SM CLR 06/M03 A3035 RMK AO2 SLP280 T00611028
                 401891044 =
2018-04-23 23:53 METAR KGFL 240353Z AUTO 00000KT 10SM CLR 03/M03 A3034 RMK AO2 SLP278 T00281033 =
2018-04-23 22:53 METAR KGFL 240253Z AUTO 00000KT 10SM CLR 02/M02 A3033 RMK AO2 SLP277 T00221022
                 51006 =
2018-04-23 21:53 METAR KGFL 240153Z AUTO 00000KT 10SM CLR 04/M02 A3033 RMK AO2 SLP276 T00391017 =

Support USWX by starting your Amazon purchase here.